Terminal Aerodrome Forecast
Issued by NWS

Home | Current Version | Previous Version | Text Only | Print | Product List | Glossary On
Versions: 1 2 3 4 5 6 7 8 9 10 11 12 13
000
FTUS46 KSEW 031127
TAFBLI
TAF
KBLI 031127Z 0312/0412 18004KT P6SM FEW024 BKN035
      TEMPO 0313/0317 BKN025 OVC040
     FM031800 17008KT P6SM VCSH BKN035 OVC080
     FM040200 17004KT P6SM SCT050 BKN100
     FM040900 17006KT P6SM SCT025 BKN050=

USA.gov is the U.S. government's official web portal to all federal, state and local government web resources and services.